sensor_id;sensor_type;location;lat;lon;timestamp;temperature;humidity
41756;DHT22;27435;48.480;9.258;2023-05-10T00:01:01;13.90;99.00
41756;DHT22;27435;48.480;9.258;2023-05-10T00:03:28;14.00;99.00
41756;DHT22;27435;48.480;9.258;2023-05-10T00:05:53;14.00;99.00
41756;DHT22;27435;48.480;9.258;2023-05-10T00:08:19;14.00;99.00
41756;DHT22;27435;48.480;9.258;2023-05-10T00:10:44;13.90;99.00
41756;DHT22;27435;48.480;9.258;2023-05-10T00:13:10;13.80;99.00
41756;DHT22;27435;48.480;9.258;2023-05-10T00:15:36;13.70;99.00
41756;DHT22;27435;48.480;9.258;2023-05-10T00:18:01;13.60;99.00
41756;DHT22;27435;48.480;9.258;2023-05-10T00:20:27;13.60;99.00
41756;DHT22;27435;48.480;9.258;2023-05-10T00:22:52;13.60;99.00
41756;DHT22;27435;48.480;9.258;2023-05-10T00:25:18;13.60;99.00
41756;DHT22;27435;48.480;9.258;2023-05-10T00:27:44;13.40;99.00
41756;DHT22;27435;48.480;9.258;2023-05-10T00:30:09;13.50;99.00
41756;DHT22;27435;48.480;9.258;2023-05-10T00:32:35;13.50;99.00
41756;DHT22;27435;48.480;9.258;2023-05-10T00:35:00;13.50;99.00
41756;DHT22;27435;48.480;9.258;2023-05-10T00:37:26;13.50;99.00
41756;DHT22;27435;48.480;9.258;2023-05-10T00:39:52;13.60;99.00
41756;DHT22;27435;48.480;9.258;2023-05-10T00:42:17;13.60;99.00
41756;DHT22;27435;48.480;9.258;2023-05-10T00:44:43;13.60;99.00
41756;DHT22;27435;48.480;9.258;2023-05-10T00:47:08;13.40;99.00
41756;DHT22;27435;48.480;9.258;2023-05-10T00:49:35;13.30;99.00
41756;DHT22;27435;48.480;9.258;2023-05-10T00:52:01;13.20;99.00
41756;DHT22;27435;48.480;9.258;2023-05-10T00:54:27;13.10;99.00
41756;DHT22;27435;48.480;9.258;2023-05-10T00:56:53;13.10;99.00
41756;DHT22;27435;48.480;9.258;2023-05-10T00:59:19;13.00;99.00
41756;DHT22;27435;48.480;9.258;2023-05-10T01:01:45;13.00;99.00
41756;DHT22;27435;48.480;9.258;2023-05-10T01:04:12;12.90;99.00
41756;DHT22;27435;48.480;9.258;2023-05-10T01:06:39;12.90;99.00
41756;DHT22;27435;48.480;9.258;2023-05-10T01:09:05;12.90;99.00
41756;DHT22;27435;48.480;9.258;2023-05-10T01:11:34;12.90;99.00
41756;DHT22;27435;48.480;9.258;2023-05-10T01:14:00;12.90;99.00
41756;DHT22;27435;48.480;9.258;2023-05-10T01:16:27;12.90;99.00
41756;DHT22;27435;48.480;9.258;2023-05-10T01:18:54;12.80;99.00
41756;DHT22;27435;48.480;9.258;2023-05-10T01:21:43;12.90;99.00
41756;DHT22;27435;48.480;9.258;2023-05-10T01:27:16;12.80;99.00
41756;DHT22;27435;48.480;9.258;2023-05-10T01:40:33;12.90;99.00
41756;DHT22;27435;48.480;9.258;2023-05-10T01:43:04;12.90;99.00
41756;DHT22;27435;48.480;9.258;2023-05-10T01:46:03;13.00;99.00
41756;DHT22;27435;48.480;9.258;2023-05-10T01:48:50;13.00;99.00
41756;DHT22;27435;48.480;9.258;2023-05-10T01:51:21;13.10;99.00
41756;DHT22;27435;48.480;9.258;2023-05-10T01:53:48;13.00;99.00
41756;DHT22;27435;48.480;9.258;2023-05-10T01:56:16;12.90;99.00
41756;DHT22;27435;48.480;9.258;2023-05-10T01:58:47;12.90;99.00
41756;DHT22;27435;48.480;9.258;2023-05-10T02:01:14;12.90;99.00
41756;DHT22;27435;48.480;9.258;2023-05-10T02:03:40;12.80;99.00
41756;DHT22;27435;48.480;9.258;2023-05-10T02:06:09;12.90;99.00
41756;DHT22;27435;48.480;9.258;2023-05-10T02:08:36;12.90;99.00
41756;DHT22;27435;48.480;9.258;2023-05-10T02:11:03;12.90;99.00
41756;DHT22;27435;48.480;9.258;2023-05-10T02:13:31;12.80;99.00
41756;DHT22;27435;48.480;9.258;2023-05-10T02:15:58;12.80;99.00
41756;DHT22;27435;48.480;9.258;2023-05-10T02:18:25;12.90;99.00
41756;DHT22;27435;48.480;9.258;2023-05-10T02:20:53;12.80;99.00
41756;DHT22;27435;48.480;9.258;2023-05-10T02:23:20;12.90;99.00
41756;DHT22;27435;48.480;9.258;2023-05-10T02:25:48;12.90;99.00
41756;DHT22;27435;48.480;9.258;2023-05-10T02:28:15;12.90;99.00
41756;DHT22;27435;48.480;9.258;2023-05-10T02:30:42;12.80;99.00
41756;DHT22;27435;48.480;9.258;2023-05-10T02:33:09;12.90;99.00
41756;DHT22;27435;48.480;9.258;2023-05-10T02:35:36;12.80;99.00
41756;DHT22;27435;48.480;9.258;2023-05-10T02:38:02;12.70;99.00
41756;DHT22;27435;48.480;9.258;2023-05-10T02:40:30;12.70;99.00
41756;DHT22;27435;48.480;9.258;2023-05-10T02:42:57;12.70;99.00
41756;DHT22;27435;48.480;9.258;2023-05-10T02:45:27;12.70;99.00
41756;DHT22;27435;48.480;9.258;2023-05-10T02:47:54;12.80;99.00
41756;DHT22;27435;48.480;9.258;2023-05-10T02:50:21;12.70;99.00
41756;DHT22;27435;48.480;9.258;2023-05-10T02:52:51;12.70;99.00
41756;DHT22;27435;48.480;9.258;2023-05-10T02:55:23;12.60;99.00
41756;DHT22;27435;48.480;9.258;2023-05-10T02:57:54;12.70;99.00
41756;DHT22;27435;48.480;9.258;2023-05-10T03:00:21;12.70;99.00
41756;DHT22;27435;48.480;9.258;2023-05-10T03:02:47;12.70;99.00
41756;DHT22;27435;48.480;9.258;2023-05-10T03:05:13;12.80;99.00
41756;DHT22;27435;48.480;9.258;2023-05-10T03:07:39;12.80;99.00
41756;DHT22;27435;48.480;9.258;2023-05-10T03:10:05;12.70;99.00
41756;DHT22;27435;48.480;9.258;2023-05-10T03:15:13;12.50;99.00
41756;DHT22;27435;48.480;9.258;2023-05-10T03:17:55;12.60;99.00
41756;DHT22;27435;48.480;9.258;2023-05-10T03:20:46;12.60;99.00
41756;DHT22;27435;48.480;9.258;2023-05-10T03:23:34;12.50;99.00
41756;DHT22;27435;48.480;9.258;2023-05-10T03:26:01;12.50;99.00
41756;DHT22;27435;48.480;9.258;2023-05-10T03:28:27;12.40;99.00
41756;DHT22;27435;48.480;9.258;2023-05-10T03:30:53;12.50;99.00
41756;DHT22;27435;48.480;9.258;2023-05-10T03:33:20;12.40;99.00
41756;DHT22;27435;48.480;9.258;2023-05-10T03:35:45;12.40;99.00
41756;DHT22;27435;48.480;9.258;2023-05-10T03:38:12;12.40;99.00
41756;DHT22;27435;48.480;9.258;2023-05-10T03:40:38;12.40;99.00
41756;DHT22;27435;48.480;9.258;2023-05-10T03:43:04;12.40;99.00
41756;DHT22;27435;48.480;9.258;2023-05-10T03:45:29;12.50;99.00
41756;DHT22;27435;48.480;9.258;2023-05-10T03:47:57;12.50;99.00
41756;DHT22;27435;48.480;9.258;2023-05-10T03:50:22;12.50;99.00
41756;DHT22;27435;48.480;9.258;2023-05-10T03:52:48;12.50;99.00
41756;DHT22;27435;48.480;9.258;2023-05-10T03:55:14;12.50;99.00
41756;DHT22;27435;48.480;9.258;2023-05-10T03:57:39;12.30;99.00
41756;DHT22;27435;48.480;9.258;2023-05-10T04:00:05;12.20;99.00
41756;DHT22;27435;48.480;9.258;2023-05-10T04:02:31;12.30;99.00
41756;DHT22;27435;48.480;9.258;2023-05-10T04:04:57;12.10;99.00
41756;DHT22;27435;48.480;9.258;2023-05-10T04:07:22;12.00;99.00
41756;DHT22;27435;48.480;9.258;2023-05-10T04:09:48;12.30;99.00
41756;DHT22;27435;48.480;9.258;2023-05-10T04:12:14;12.20;99.00
41756;DHT22;27435;48.480;9.258;2023-05-10T04:14:39;12.40;99.00
41756;DHT22;27435;48.480;9.258;2023-05-10T04:17:05;12.60;99.00
41756;DHT22;27435;48.480;9.258;2023-05-10T04:19:31;12.50;99.00
41756;DHT22;27435;48.480;9.258;2023-05-10T04:21:56;12.60;99.00
41756;DHT22;27435;48.480;9.258;2023-05-10T04:24:23;12.50;99.00
41756;DHT22;27435;48.480;9.258;2023-05-10T04:26:48;12.60;99.00
41756;DHT22;27435;48.480;9.258;2023-05-10T04:29:14;12.70;99.00
41756;DHT22;27435;48.480;9.258;2023-05-10T04:31:39;12.60;99.00
41756;DHT22;27435;48.480;9.258;2023-05-10T04:34:05;12.60;99.00
41756;DHT22;27435;48.480;9.258;2023-05-10T04:36:31;12.80;99.00
41756;DHT22;27435;48.480;9.258;2023-05-10T04:38:58;12.90;99.00
41756;DHT22;27435;48.480;9.258;2023-05-10T04:41:23;12.90;99.00
41756;DHT22;27435;48.480;9.258;2023-05-10T04:43:50;12.90;99.00
41756;DHT22;27435;48.480;9.258;2023-05-10T04:46:16;12.80;99.00
41756;DHT22;27435;48.480;9.258;2023-05-10T04:48:42;12.80;99.00
41756;DHT22;27435;48.480;9.258;2023-05-10T04:51:11;12.80;99.00
41756;DHT22;27435;48.480;9.258;2023-05-10T04:53:57;12.90;99.00
41756;DHT22;27435;48.480;9.258;2023-05-10T04:56:22;13.00;99.00
41756;DHT22;27435;48.480;9.258;2023-05-10T04:58:48;13.20;99.00
41756;DHT22;27435;48.480;9.258;2023-05-10T05:01:14;13.20;99.00
41756;DHT22;27435;48.480;9.258;2023-05-10T05:03:40;13.20;99.00
41756;DHT22;27435;48.480;9.258;2023-05-10T05:06:06;13.10;99.00
41756;DHT22;27435;48.480;9.258;2023-05-10T05:08:31;13.10;99.00
41756;DHT22;27435;48.480;9.258;2023-05-10T05:10:57;13.10;99.00
41756;DHT22;27435;48.480;9.258;2023-05-10T05:13:23;13.10;99.00
41756;DHT22;27435;48.480;9.258;2023-05-10T05:15:49;13.00;99.00
41756;DHT22;27435;48.480;9.258;2023-05-10T05:18:14;13.10;99.00
41756;DHT22;27435;48.480;9.258;2023-05-10T05:20:40;13.20;99.00
41756;DHT22;27435;48.480;9.258;2023-05-10T05:23:05;13.30;99.00
41756;DHT22;27435;48.480;9.258;2023-05-10T05:25:31;13.30;99.00
41756;DHT22;27435;48.480;9.258;2023-05-10T05:27:57;13.30;99.00
41756;DHT22;27435;48.480;9.258;2023-05-10T05:30:24;13.40;99.00
41756;DHT22;27435;48.480;9.258;2023-05-10T05:32:50;13.50;99.00
41756;DHT22;27435;48.480;9.258;2023-05-10T05:35:16;13.50;99.00
41756;DHT22;27435;48.480;9.258;2023-05-10T05:37:41;13.60;99.00
41756;DHT22;27435;48.480;9.258;2023-05-10T05:40:07;13.60;99.00
41756;DHT22;27435;48.480;9.258;2023-05-10T05:42:33;13.70;99.00
41756;DHT22;27435;48.480;9.258;2023-05-10T05:44:59;13.70;99.00
41756;DHT22;27435;48.480;9.258;2023-05-10T05:47:24;13.80;99.00
41756;DHT22;27435;48.480;9.258;2023-05-10T05:49:50;13.80;99.00
41756;DHT22;27435;48.480;9.258;2023-05-10T05:52:16;13.60;99.00
41756;DHT22;27435;48.480;9.258;2023-05-10T05:54:42;13.60;99.00
41756;DHT22;27435;48.480;9.258;2023-05-10T05:57:07;13.30;99.00
41756;DHT22;27435;48.480;9.258;2023-05-10T05:59:34;13.20;99.00
41756;DHT22;27435;48.480;9.258;2023-05-10T06:01:59;13.10;99.00
41756;DHT22;27435;48.480;9.258;2023-05-10T06:04:25;13.20;99.00
41756;DHT22;27435;48.480;9.258;2023-05-10T06:06:51;13.20;99.00
41756;DHT22;27435;48.480;9.258;2023-05-10T06:09:17;13.20;99.00
41756;DHT22;27435;48.480;9.258;2023-05-10T06:11:42;13.30;99.00
41756;DHT22;27435;48.480;9.258;2023-05-10T06:14:08;13.30;99.00
41756;DHT22;27435;48.480;9.258;2023-05-10T06:16:34;13.30;99.00
41756;DHT22;27435;48.480;9.258;2023-05-10T06:19:00;13.40;99.00
41756;DHT22;27435;48.480;9.258;2023-05-10T06:21:26;13.60;99.00
41756;DHT22;27435;48.480;9.258;2023-05-10T06:23:51;13.70;99.00
41756;DHT22;27435;48.480;9.258;2023-05-10T06:26:17;13.60;99.00
41756;DHT22;27435;48.480;9.258;2023-05-10T06:28:42;13.80;99.00
41756;DHT22;27435;48.480;9.258;2023-05-10T06:31:08;13.80;99.00
41756;DHT22;27435;48.480;9.258;2023-05-10T06:33:34;13.90;99.00
41756;DHT22;27435;48.480;9.258;2023-05-10T06:35:59;13.80;99.00
41756;DHT22;27435;48.480;9.258;2023-05-10T06:38:25;13.90;99.00
41756;DHT22;27435;48.480;9.258;2023-05-10T06:40:51;14.10;99.00
41756;DHT22;27435;48.480;9.258;2023-05-10T06:43:17;14.20;99.00
41756;DHT22;27435;48.480;9.258;2023-05-10T06:45:43;14.20;99.00
41756;DHT22;27435;48.480;9.258;2023-05-10T06:48:09;14.30;99.00
41756;DHT22;27435;48.480;9.258;2023-05-10T06:50:34;14.30;99.00
41756;DHT22;27435;48.480;9.258;2023-05-10T06:53:00;14.50;99.00
41756;DHT22;27435;48.480;9.258;2023-05-10T06:55:27;14.40;99.00
41756;DHT22;27435;48.480;9.258;2023-05-10T06:57:53;14.60;99.00
41756;DHT22;27435;48.480;9.258;2023-05-10T07:00:19;14.60;99.00
41756;DHT22;27435;48.480;9.258;2023-05-10T07:02:45;14.70;99.00
41756;DHT22;27435;48.480;9.258;2023-05-10T07:05:11;14.70;99.00
41756;DHT22;27435;48.480;9.258;2023-05-10T07:07:37;14.70;99.00
41756;DHT22;27435;48.480;9.258;2023-05-10T07:10:03;14.60;99.00
41756;DHT22;27435;48.480;9.258;2023-05-10T07:12:28;14.30;99.00
41756;DHT22;27435;48.480;9.258;2023-05-10T07:14:54;14.10;99.00
41756;DHT22;27435;48.480;9.258;2023-05-10T07:17:22;14.20;99.00
41756;DHT22;27435;48.480;9.258;2023-05-10T07:19:51;14.10;99.00
41756;DHT22;27435;48.480;9.258;2023-05-10T07:22:17;14.10;99.00
41756;DHT22;27435;48.480;9.258;2023-05-10T07:24:43;14.10;99.00
41756;DHT22;27435;48.480;9.258;2023-05-10T07:27:09;14.20;99.00
41756;DHT22;27435;48.480;9.258;2023-05-10T07:29:35;14.40;99.00
41756;DHT22;27435;48.480;9.258;2023-05-10T07:32:01;14.40;99.00
41756;DHT22;27435;48.480;9.258;2023-05-10T07:34:27;14.20;99.00
41756;DHT22;27435;48.480;9.258;2023-05-10T07:36:54;14.20;99.00
41756;DHT22;27435;48.480;9.258;2023-05-10T07:39:20;14.30;99.00
41756;DHT22;27435;48.480;9.258;2023-05-10T07:41:48;14.10;99.00
41756;DHT22;27435;48.480;9.258;2023-05-10T07:44:14;14.00;99.00
41756;DHT22;27435;48.480;9.258;2023-05-10T07:46:39;14.10;99.00
41756;DHT22;27435;48.480;9.258;2023-05-10T07:49:05;14.20;99.00
41756;DHT22;27435;48.480;9.258;2023-05-10T07:51:31;14.50;99.00
41756;DHT22;27435;48.480;9.258;2023-05-10T07:53:57;14.70;99.00
41756;DHT22;27435;48.480;9.258;2023-05-10T07:56:27;14.60;99.00
41756;DHT22;27435;48.480;9.258;2023-05-10T07:59:02;14.60;99.00
41756;DHT22;27435;48.480;9.258;2023-05-10T08:01:33;14.60;99.00
41756;DHT22;27435;48.480;9.258;2023-05-10T08:03:59;14.90;99.00
41756;DHT22;27435;48.480;9.258;2023-05-10T08:06:25;14.90;99.00
41756;DHT22;27435;48.480;9.258;2023-05-10T08:08:55;14.90;99.00
41756;DHT22;27435;48.480;9.258;2023-05-10T08:11:21;15.00;99.00
41756;DHT22;27435;48.480;9.258;2023-05-10T08:13:48;15.10;99.00
41756;DHT22;27435;48.480;9.258;2023-05-10T08:16:14;15.20;99.00
41756;DHT22;27435;48.480;9.258;2023-05-10T08:18:40;15.30;99.00
41756;DHT22;27435;48.480;9.258;2023-05-10T08:21:06;15.20;99.00
41756;DHT22;27435;48.480;9.258;2023-05-10T08:23:32;15.40;99.00
41756;DHT22;27435;48.480;9.258;2023-05-10T08:25:57;15.40;99.00
41756;DHT22;27435;48.480;9.258;2023-05-10T08:28:23;15.40;99.00
41756;DHT22;27435;48.480;9.258;2023-05-10T08:30:50;15.80;99.00
41756;DHT22;27435;48.480;9.258;2023-05-10T08:33:17;15.70;98.80
41756;DHT22;27435;48.480;9.258;2023-05-10T08:35:43;15.40;99.00
41756;DHT22;27435;48.480;9.258;2023-05-10T08:38:09;15.50;99.00
41756;DHT22;27435;48.480;9.258;2023-05-10T08:40:37;15.80;99.00
41756;DHT22;27435;48.480;9.258;2023-05-10T08:43:06;15.90;99.00
41756;DHT22;27435;48.480;9.258;2023-05-10T08:45:33;15.90;98.30
41756;DHT22;27435;48.480;9.258;2023-05-10T08:48:02;16.10;98.20
41756;DHT22;27435;48.480;9.258;2023-05-10T08:50:31;16.50;98.00
41756;DHT22;27435;48.480;9.258;2023-05-10T08:53:00;16.70;97.20
41756;DHT22;27435;48.480;9.258;2023-05-10T08:55:26;17.10;96.00
41756;DHT22;27435;48.480;9.258;2023-05-10T08:57:52;17.20;94.60
41756;DHT22;27435;48.480;9.258;2023-05-10T09:00:18;17.20;93.90
41756;DHT22;27435;48.480;9.258;2023-05-10T09:02:44;16.90;93.30
41756;DHT22;27435;48.480;9.258;2023-05-10T09:05:11;16.50;92.90
41756;DHT22;27435;48.480;9.258;2023-05-10T09:07:37;16.30;94.90
41756;DHT22;27435;48.480;9.258;2023-05-10T09:10:04;15.90;96.40
41756;DHT22;27435;48.480;9.258;2023-05-10T09:12:30;15.80;98.30
41756;DHT22;27435;48.480;9.258;2023-05-10T09:14:57;15.90;97.80
41756;DHT22;27435;48.480;9.258;2023-05-10T09:17:25;16.00;95.80
41756;DHT22;27435;48.480;9.258;2023-05-10T09:20:03;16.20;96.20
41756;DHT22;27435;48.480;9.258;2023-05-10T09:22:33;16.40;95.50
41756;DHT22;27435;48.480;9.258;2023-05-10T09:25:05;16.40;94.80
41756;DHT22;27435;48.480;9.258;2023-05-10T09:27:31;16.40;94.70
41756;DHT22;27435;48.480;9.258;2023-05-10T09:29:57;16.30;95.70
41756;DHT22;27435;48.480;9.258;2023-05-10T09:32:42;16.30;95.40
41756;DHT22;27435;48.480;9.258;2023-05-10T09:37:39;16.40;94.80
41756;DHT22;27435;48.480;9.258;2023-05-10T09:40:07;16.10;96.20
41756;DHT22;27435;48.480;9.258;2023-05-10T09:42:34;16.40;96.00
41756;DHT22;27435;48.480;9.258;2023-05-10T09:45:04;15.90;95.40
41756;DHT22;27435;48.480;9.258;2023-05-10T09:47:33;15.80;96.60
41756;DHT22;27435;48.480;9.258;2023-05-10T09:50:00;16.10;95.50
41756;DHT22;27435;48.480;9.258;2023-05-10T09:52:30;16.70;94.10
41756;DHT22;27435;48.480;9.258;2023-05-10T09:54:56;17.10;91.20
41756;DHT22;27435;48.480;9.258;2023-05-10T09:57:23;17.20;89.30
41756;DHT22;27435;48.480;9.258;2023-05-10T09:59:49;16.70;91.60
41756;DHT22;27435;48.480;9.258;2023-05-10T10:02:16;16.90;92.10
41756;DHT22;27435;48.480;9.258;2023-05-10T10:04:42;17.00;91.70
41756;DHT22;27435;48.480;9.258;2023-05-10T10:07:08;17.10;91.40
41756;DHT22;27435;48.480;9.258;2023-05-10T10:09:35;17.00;91.80
41756;DHT22;27435;48.480;9.258;2023-05-10T10:12:01;16.90;92.20
41756;DHT22;27435;48.480;9.258;2023-05-10T10:14:28;16.80;91.50
41756;DHT22;27435;48.480;9.258;2023-05-10T10:16:54;16.50;93.60
41756;DHT22;27435;48.480;9.258;2023-05-10T10:19:20;16.00;98.50
41756;DHT22;27435;48.480;9.258;2023-05-10T10:21:49;15.80;99.00
41756;DHT22;27435;48.480;9.258;2023-05-10T10:24:15;15.50;99.00
41756;DHT22;27435;48.480;9.258;2023-05-10T10:26:42;15.50;99.00
41756;DHT22;27435;48.480;9.258;2023-05-10T10:31:55;15.60;99.00
41756;DHT22;27435;48.480;9.258;2023-05-10T10:34:29;15.90;99.00
41756;DHT22;27435;48.480;9.258;2023-05-10T10:36:57;16.10;99.00
41756;DHT22;27435;48.480;9.258;2023-05-10T10:39:24;16.40;99.00
41756;DHT22;27435;48.480;9.258;2023-05-10T10:41:54;16.70;99.00
41756;DHT22;27435;48.480;9.258;2023-05-10T10:44:33;17.10;99.00
41756;DHT22;27435;48.480;9.258;2023-05-10T10:50:02;17.50;98.90
41756;DHT22;27435;48.480;9.258;2023-05-10T10:52:36;17.80;97.10
41756;DHT22;27435;48.480;9.258;2023-05-10T10:55:06;17.80;96.90
41756;DHT22;27435;48.480;9.258;2023-05-10T10:58:15;17.90;93.80
41756;DHT22;27435;48.480;9.258;2023-05-10T11:00:38;18.10;93.40
41756;DHT22;27435;48.480;9.258;2023-05-10T11:03:08;18.30;93.50
41756;DHT22;27435;48.480;9.258;2023-05-10T11:05:44;18.10;94.10
41756;DHT22;27435;48.480;9.258;2023-05-10T11:08:11;18.20;92.10
41756;DHT22;27435;48.480;9.258;2023-05-10T11:11:01;18.30;92.80
41756;DHT22;27435;48.480;9.258;2023-05-10T11:15:55;18.40;87.80
41756;DHT22;27435;48.480;9.258;2023-05-10T11:18:39;18.60;87.70
41756;DHT22;27435;48.480;9.258;2023-05-10T11:21:04;18.80;88.20
41756;DHT22;27435;48.480;9.258;2023-05-10T11:26:08;19.10;85.80
41756;DHT22;27435;48.480;9.258;2023-05-10T11:28:47;19.10;82.90
41756;DHT22;27435;48.480;9.258;2023-05-10T11:31:17;18.50;84.20
41756;DHT22;27435;48.480;9.258;2023-05-10T11:33:45;18.30;86.50
41756;DHT22;27435;48.480;9.258;2023-05-10T11:36:12;17.70;85.20
41756;DHT22;27435;48.480;9.258;2023-05-10T11:38:40;16.60;93.00
41756;DHT22;27435;48.480;9.258;2023-05-10T11:41:11;15.10;92.60
41756;DHT22;27435;48.480;9.258;2023-05-10T11:43:39;14.20;97.50
41756;DHT22;27435;48.480;9.258;2023-05-10T11:46:10;13.90;99.00
41756;DHT22;27435;48.480;9.258;2023-05-10T11:48:40;13.70;97.70
41756;DHT22;27435;48.480;9.258;2023-05-10T11:51:10;13.90;97.70
41756;DHT22;27435;48.480;9.258;2023-05-10T11:53:36;14.00;98.30
41756;DHT22;27435;48.480;9.258;2023-05-10T11:56:09;14.40;96.20
41756;DHT22;27435;48.480;9.258;2023-05-10T11:58:37;14.40;94.70
41756;DHT22;27435;48.480;9.258;2023-05-10T12:01:04;14.10;94.10
41756;DHT22;27435;48.480;9.258;2023-05-10T12:03:33;14.10;95.80
41756;DHT22;27435;48.480;9.258;2023-05-10T12:06:00;14.40;96.70
41756;DHT22;27435;48.480;9.258;2023-05-10T12:08:30;14.30;99.00
41756;DHT22;27435;48.480;9.258;2023-05-10T12:11:11;14.10;99.00
41756;DHT22;27435;48.480;9.258;2023-05-10T12:13:38;14.20;99.00
41756;DHT22;27435;48.480;9.258;2023-05-10T12:16:19;14.40;99.00
41756;DHT22;27435;48.480;9.258;2023-05-10T12:18:52;14.40;99.00
41756;DHT22;27435;48.480;9.258;2023-05-10T12:21:20;14.60;99.00
41756;DHT22;27435;48.480;9.258;2023-05-10T12:23:48;14.90;99.00
41756;DHT22;27435;48.480;9.258;2023-05-10T12:26:14;14.80;97.50
41756;DHT22;27435;48.480;9.258;2023-05-10T12:28:45;14.70;98.80
41756;DHT22;27435;48.480;9.258;2023-05-10T12:31:11;14.60;97.10
41756;DHT22;27435;48.480;9.258;2023-05-10T12:33:41;14.50;99.00
41756;DHT22;27435;48.480;9.258;2023-05-10T12:36:12;14.90;98.40
41756;DHT22;27435;48.480;9.258;2023-05-10T12:38:40;15.20;97.00
41756;DHT22;27435;48.480;9.258;2023-05-10T12:41:12;15.00;90.50
41756;DHT22;27435;48.480;9.258;2023-05-10T12:43:44;14.70;93.80
41756;DHT22;27435;48.480;9.258;2023-05-10T12:46:12;15.20;91.20
41756;DHT22;27435;48.480;9.258;2023-05-10T12:48:41;15.70;87.90
41756;DHT22;27435;48.480;9.258;2023-05-10T12:51:07;16.00;88.00
41756;DHT22;27435;48.480;9.258;2023-05-10T12:53:42;16.50;87.10
41756;DHT22;27435;48.480;9.258;2023-05-10T12:56:11;17.20;83.80
41756;DHT22;27435;48.480;9.258;2023-05-10T12:58:38;16.90;82.80
41756;DHT22;27435;48.480;9.258;2023-05-10T13:01:04;16.20;83.00
41756;DHT22;27435;48.480;9.258;2023-05-10T13:03:31;15.80;86.00
41756;DHT22;27435;48.480;9.258;2023-05-10T13:05:56;15.80;86.60
41756;DHT22;27435;48.480;9.258;2023-05-10T13:08:22;16.00;87.00
41756;DHT22;27435;48.480;9.258;2023-05-10T13:10:50;16.10;86.50
41756;DHT22;27435;48.480;9.258;2023-05-10T13:13:16;16.00;86.60
41756;DHT22;27435;48.480;9.258;2023-05-10T13:15:46;15.80;87.40
41756;DHT22;27435;48.480;9.258;2023-05-10T13:18:14;16.10;87.90
41756;DHT22;27435;48.480;9.258;2023-05-10T13:20:40;16.90;85.00
41756;DHT22;27435;48.480;9.258;2023-05-10T13:23:06;17.10;82.50
41756;DHT22;27435;48.480;9.258;2023-05-10T13:25:32;17.20;82.10
41756;DHT22;27435;48.480;9.258;2023-05-10T13:28:07;17.30;81.40
41756;DHT22;27435;48.480;9.258;2023-05-10T13:30:36;17.70;81.50
41756;DHT22;27435;48.480;9.258;2023-05-10T13:33:02;18.10;79.70
41756;DHT22;27435;48.480;9.258;2023-05-10T13:35:27;18.40;78.20
41756;DHT22;27435;48.480;9.258;2023-05-10T13:37:56;18.40;78.30
41756;DHT22;27435;48.480;9.258;2023-05-10T13:40:25;18.50;77.90
41756;DHT22;27435;48.480;9.258;2023-05-10T13:42:51;18.30;78.00
41756;DHT22;27435;48.480;9.258;2023-05-10T13:45:19;18.00;79.70
41756;DHT22;27435;48.480;9.258;2023-05-10T13:47:45;17.80;80.00
41756;DHT22;27435;48.480;9.258;2023-05-10T13:50:11;17.40;81.00
41756;DHT22;27435;48.480;9.258;2023-05-10T13:52:36;17.40;81.20
41756;DHT22;27435;48.480;9.258;2023-05-10T13:55:05;17.50;80.30
41756;DHT22;27435;48.480;9.258;2023-05-10T13:57:31;17.60;79.20
41756;DHT22;27435;48.480;9.258;2023-05-10T14:00:01;17.10;81.20
41756;DHT22;27435;48.480;9.258;2023-05-10T14:02:27;17.20;82.20
41756;DHT22;27435;48.480;9.258;2023-05-10T14:04:56;16.90;81.20
41756;DHT22;27435;48.480;9.258;2023-05-10T14:07:21;16.50;82.00
41756;DHT22;27435;48.480;9.258;2023-05-10T14:09:47;16.60;83.10
41756;DHT22;27435;48.480;9.258;2023-05-10T14:12:13;17.00;82.50
41756;DHT22;27435;48.480;9.258;2023-05-10T14:14:39;17.20;80.30
41756;DHT22;27435;48.480;9.258;2023-05-10T14:17:05;17.20;81.50
41756;DHT22;27435;48.480;9.258;2023-05-10T14:19:31;17.80;80.20
41756;DHT22;27435;48.480;9.258;2023-05-10T14:21:59;17.90;78.90
41756;DHT22;27435;48.480;9.258;2023-05-10T14:24:24;18.20;77.00
41756;DHT22;27435;48.480;9.258;2023-05-10T14:26:50;18.00;77.90
41756;DHT22;27435;48.480;9.258;2023-05-10T14:29:19;17.70;79.20
41756;DHT22;27435;48.480;9.258;2023-05-10T14:31:45;17.20;80.60
41756;DHT22;27435;48.480;9.258;2023-05-10T14:34:10;16.60;83.30
41756;DHT22;27435;48.480;9.258;2023-05-10T14:36:36;16.30;83.20
41756;DHT22;27435;48.480;9.258;2023-05-10T14:39:01;16.50;84.00
41756;DHT22;27435;48.480;9.258;2023-05-10T14:41:28;16.70;83.30
41756;DHT22;27435;48.480;9.258;2023-05-10T14:43:55;16.90;83.10
41756;DHT22;27435;48.480;9.258;2023-05-10T14:46:21;17.00;83.10
41756;DHT22;27435;48.480;9.258;2023-05-10T14:48:46;17.00;81.90
41756;DHT22;27435;48.480;9.258;2023-05-10T14:51:12;16.90;80.60
41756;DHT22;27435;48.480;9.258;2023-05-10T14:53:38;17.00;80.60
41756;DHT22;27435;48.480;9.258;2023-05-10T14:56:03;17.20;81.10
41756;DHT22;27435;48.480;9.258;2023-05-10T14:58:29;17.60;79.90
41756;DHT22;27435;48.480;9.258;2023-05-10T15:00:56;17.50;79.90
41756;DHT22;27435;48.480;9.258;2023-05-10T15:03:22;17.60;79.20
41756;DHT22;27435;48.480;9.258;2023-05-10T15:05:47;17.80;79.40
41756;DHT22;27435;48.480;9.258;2023-05-10T15:08:13;17.70;79.00
41756;DHT22;27435;48.480;9.258;2023-05-10T15:10:39;17.50;79.90
41756;DHT22;27435;48.480;9.258;2023-05-10T15:13:05;17.60;79.90
41756;DHT22;27435;48.480;9.258;2023-05-10T15:15:30;17.50;80.50
41756;DHT22;27435;48.480;9.258;2023-05-10T15:17:56;17.00;81.30
41756;DHT22;27435;48.480;9.258;2023-05-10T15:20:22;16.60;83.10
41756;DHT22;27435;48.480;9.258;2023-05-10T15:22:47;16.60;82.80
41756;DHT22;27435;48.480;9.258;2023-05-10T15:25:13;16.80;82.10
41756;DHT22;27435;48.480;9.258;2023-05-10T15:27:40;16.90;81.90
41756;DHT22;27435;48.480;9.258;2023-05-10T15:30:06;16.80;81.70
41756;DHT22;27435;48.480;9.258;2023-05-10T15:32:32;16.70;82.90
41756;DHT22;27435;48.480;9.258;2023-05-10T15:34:58;16.60;83.60
41756;DHT22;27435;48.480;9.258;2023-05-10T15:37:24;16.40;84.80
41756;DHT22;27435;48.480;9.258;2023-05-10T15:39:50;16.10;85.30
41756;DHT22;27435;48.480;9.258;2023-05-10T15:42:15;15.90;86.80
41756;DHT22;27435;48.480;9.258;2023-05-10T15:44:41;15.80;87.20
41756;DHT22;27435;48.480;9.258;2023-05-10T15:47:09;15.70;86.20
41756;DHT22;27435;48.480;9.258;2023-05-10T15:49:34;16.00;85.70
41756;DHT22;27435;48.480;9.258;2023-05-10T15:52:00;16.40;85.20
41756;DHT22;27435;48.480;9.258;2023-05-10T15:54:26;16.00;86.10
41756;DHT22;27435;48.480;9.258;2023-05-10T15:56:52;16.20;85.80
41756;DHT22;27435;48.480;9.258;2023-05-10T15:59:19;16.30;84.90
41756;DHT22;27435;48.480;9.258;2023-05-10T16:01:45;16.40;84.80